FUE weather

Fuerteventura Airport
Fuerteventura Island, Canary Islands, Spain

Public forecast

Using degrees Celsius for public forecast. Weather courtesy of forecast.io.

METAR (pilot weather report)

Retrieved 2019/04/26 00:00 UTC (8 minutes ago):

GCFV 260000Z AUTO 02014KT 9999 FEW023 SCT029 19/14 Q1021

TAF (pilot weather forecast)

Retrieved 2019/04/25 21:27 UTC (3 hours ago):

TAF TAF GCFV 252000Z 2521/2621 35009KT 9999 BKN030 TX23/2614Z TN18/2605Z BECMG 2609/2611 05018KT